sensor_id;sensor_type;location;lat;lon;timestamp;P1;durP1;ratioP1;P2;durP2;ratioP2
43994;SDS011;51687;52.160;5.298;2023-01-10T00:01:39;14.27;;;3.30;;
43994;SDS011;51687;52.160;5.298;2023-01-10T00:04:06;18.45;;;4.10;;
43994;SDS011;51687;52.160;5.298;2023-01-10T00:06:32;13.77;;;3.20;;
43994;SDS011;51687;52.160;5.298;2023-01-10T00:08:59;16.90;;;3.72;;
43994;SDS011;51687;52.160;5.298;2023-01-10T00:11:26;18.48;;;3.58;;
43994;SDS011;51687;52.160;5.298;2023-01-10T00:14:11;16.73;;;3.45;;
43994;SDS011;51687;52.160;5.298;2023-01-10T00:16:38;17.75;;;4.00;;
43994;SDS011;51687;52.160;5.298;2023-01-10T00:19:07;12.82;;;2.95;;
43994;SDS011;51687;52.160;5.298;2023-01-10T00:21:36;14.55;;;3.33;;
43994;SDS011;51687;52.160;5.298;2023-01-10T00:24:05;16.30;;;4.07;;
43994;SDS011;51687;52.160;5.298;2023-01-10T00:26:48;13.93;;;3.55;;
43994;SDS011;51687;52.160;5.298;2023-01-10T00:29:20;17.02;;;3.75;;
43994;SDS011;51687;52.160;5.298;2023-01-10T00:31:51;14.35;;;3.30;;
43994;SDS011;51687;52.160;5.298;2023-01-10T00:34:18;15.82;;;3.28;;
43994;SDS011;51687;52.160;5.298;2023-01-10T00:36:45;18.10;;;3.20;;
43994;SDS011;51687;52.160;5.298;2023-01-10T00:39:13;16.08;;;2.70;;
43994;SDS011;51687;52.160;5.298;2023-01-10T00:41:40;17.83;;;5.03;;
43994;SDS011;51687;52.160;5.298;2023-01-10T00:44:26;22.10;;;3.47;;
43994;SDS011;51687;52.160;5.298;2023-01-10T00:46:53;14.32;;;3.60;;
43994;SDS011;51687;52.160;5.298;2023-01-10T00:49:19;21.98;;;3.72;;
43994;SDS011;51687;52.160;5.298;2023-01-10T00:51:46;13.55;;;2.95;;
43994;SDS011;51687;52.160;5.298;2023-01-10T00:54:13;20.05;;;3.67;;
43994;SDS011;51687;52.160;5.298;2023-01-10T00:56:40;20.30;;;3.40;;
43994;SDS011;51687;52.160;5.298;2023-01-10T00:59:07;16.23;;;3.78;;
43994;SDS011;51687;52.160;5.298;2023-01-10T01:01:34;17.98;;;4.05;;
43994;SDS011;51687;52.160;5.298;2023-01-10T01:04:01;18.30;;;4.50;;
43994;SDS011;51687;52.160;5.298;2023-01-10T01:06:28;24.45;;;4.03;;
43994;SDS011;51687;52.160;5.298;2023-01-10T01:08:55;23.13;;;4.55;;
43994;SDS011;51687;52.160;5.298;2023-01-10T01:11:21;20.10;;;4.00;;
43994;SDS011;51687;52.160;5.298;2023-01-10T01:13:48;15.50;;;3.47;;
43994;SDS011;51687;52.160;5.298;2023-01-10T01:16:15;27.10;;;4.32;;
43994;SDS011;51687;52.160;5.298;2023-01-10T01:18:42;15.32;;;3.40;;
43994;SDS011;51687;52.160;5.298;2023-01-10T01:21:09;13.32;;;3.47;;
43994;SDS011;51687;52.160;5.298;2023-01-10T01:23:35;14.77;;;3.25;;
43994;SDS011;51687;52.160;5.298;2023-01-10T01:26:02;14.95;;;3.35;;
43994;SDS011;51687;52.160;5.298;2023-01-10T01:28:31;16.63;;;4.13;;
43994;SDS011;51687;52.160;5.298;2023-01-10T01:30:58;19.73;;;3.42;;
43994;SDS011;51687;52.160;5.298;2023-01-10T01:33:25;22.35;;;3.92;;
43994;SDS011;51687;52.160;5.298;2023-01-10T01:35:52;25.40;;;4.05;;
43994;SDS011;51687;52.160;5.298;2023-01-10T01:38:18;20.73;;;3.83;;
43994;SDS011;51687;52.160;5.298;2023-01-10T01:40:45;23.05;;;4.30;;
43994;SDS011;51687;52.160;5.298;2023-01-10T01:43:23;17.63;;;3.67;;
43994;SDS011;51687;52.160;5.298;2023-01-10T01:45:51;19.92;;;3.58;;
43994;SDS011;51687;52.160;5.298;2023-01-10T01:48:30;24.08;;;4.05;;
43994;SDS011;51687;52.160;5.298;2023-01-10T01:51:03;18.50;;;3.50;;
43994;SDS011;51687;52.160;5.298;2023-01-10T01:53:42;22.27;;;3.60;;
43994;SDS011;51687;52.160;5.298;2023-01-10T01:56:16;16.17;;;3.53;;
43994;SDS011;51687;52.160;5.298;2023-01-10T02:01:24;19.23;;;4.07;;
43994;SDS011;51687;52.160;5.298;2023-01-10T02:03:55;21.55;;;4.55;;
43994;SDS011;51687;52.160;5.298;2023-01-10T02:06:26;23.30;;;4.07;;
43994;SDS011;51687;52.160;5.298;2023-01-10T02:09:02;13.90;;;3.42;;
43994;SDS011;51687;52.160;5.298;2023-01-10T02:11:37;25.90;;;4.25;;
43994;SDS011;51687;52.160;5.298;2023-01-10T02:14:04;23.15;;;4.30;;
43994;SDS011;51687;52.160;5.298;2023-01-10T02:16:32;26.03;;;4.43;;
43994;SDS011;51687;52.160;5.298;2023-01-10T02:18:58;22.23;;;4.10;;
43994;SDS011;51687;52.160;5.298;2023-01-10T02:21:32;25.67;;;3.58;;
43994;SDS011;51687;52.160;5.298;2023-01-10T02:43:28;19.70;;;4.13;;
43994;SDS011;51687;52.160;5.298;2023-01-10T02:46:04;18.30;;;4.40;;
43994;SDS011;51687;52.160;5.298;2023-01-10T02:48:34;18.27;;;4.63;;
43994;SDS011;51687;52.160;5.298;2023-01-10T02:51:03;27.58;;;3.40;;
43994;SDS011;51687;52.160;5.298;2023-01-10T02:53:46;19.48;;;4.18;;
43994;SDS011;51687;52.160;5.298;2023-01-10T03:07:37;22.15;;;4.10;;
43994;SDS011;51687;52.160;5.298;2023-01-10T03:10:24;19.38;;;3.75;;
43994;SDS011;51687;52.160;5.298;2023-01-10T03:12:57;22.27;;;4.10;;
43994;SDS011;51687;52.160;5.298;2023-01-10T03:15:36;23.90;;;4.07;;
43994;SDS011;51687;52.160;5.298;2023-01-10T03:18:08;20.30;;;4.38;;
43994;SDS011;51687;52.160;5.298;2023-01-10T03:20:39;23.95;;;4.10;;
43994;SDS011;51687;52.160;5.298;2023-01-10T03:23:09;17.70;;;4.10;;
43994;SDS011;51687;52.160;5.298;2023-01-10T03:25:38;25.85;;;5.50;;
43994;SDS011;51687;52.160;5.298;2023-01-10T03:28:07;28.55;;;5.15;;
43994;SDS011;51687;52.160;5.298;2023-01-10T03:30:48;30.08;;;4.45;;
43994;SDS011;51687;52.160;5.298;2023-01-10T03:33:40;24.85;;;4.25;;
43994;SDS011;51687;52.160;5.298;2023-01-10T03:36:16;29.17;;;4.40;;
43994;SDS011;51687;52.160;5.298;2023-01-10T03:38:58;24.75;;;4.10;;
43994;SDS011;51687;52.160;5.298;2023-01-10T03:41:38;31.60;;;5.40;;
43994;SDS011;51687;52.160;5.298;2023-01-10T03:44:18;25.88;;;5.18;;
43994;SDS011;51687;52.160;5.298;2023-01-10T03:47:27;27.70;;;5.32;;
43994;SDS011;51687;52.160;5.298;2023-01-10T03:52:36;23.58;;;4.53;;
43994;SDS011;51687;52.160;5.298;2023-01-10T03:55:06;22.95;;;4.65;;
43994;SDS011;51687;52.160;5.298;2023-01-10T03:57:35;32.72;;;4.95;;
43994;SDS011;51687;52.160;5.298;2023-01-10T04:00:02;22.58;;;5.22;;
43994;SDS011;51687;52.160;5.298;2023-01-10T04:02:30;21.48;;;4.22;;
43994;SDS011;51687;52.160;5.298;2023-01-10T04:04:57;25.70;;;4.15;;
43994;SDS011;51687;52.160;5.298;2023-01-10T04:07:24;29.92;;;6.03;;
43994;SDS011;51687;52.160;5.298;2023-01-10T04:09:52;26.52;;;4.78;;
43994;SDS011;51687;52.160;5.298;2023-01-10T04:12:19;29.95;;;4.95;;
43994;SDS011;51687;52.160;5.298;2023-01-10T04:14:45;23.45;;;4.95;;
43994;SDS011;51687;52.160;5.298;2023-01-10T04:17:13;26.08;;;5.05;;
43994;SDS011;51687;52.160;5.298;2023-01-10T04:19:41;27.27;;;5.00;;
43994;SDS011;51687;52.160;5.298;2023-01-10T04:22:08;30.58;;;6.10;;
43994;SDS011;51687;52.160;5.298;2023-01-10T04:24:35;29.67;;;4.93;;
43994;SDS011;51687;52.160;5.298;2023-01-10T04:27:03;28.17;;;5.45;;
43994;SDS011;51687;52.160;5.298;2023-01-10T04:29:29;18.10;;;4.97;;
43994;SDS011;51687;52.160;5.298;2023-01-10T04:31:56;25.08;;;4.90;;
43994;SDS011;51687;52.160;5.298;2023-01-10T04:34:23;23.55;;;4.25;;
43994;SDS011;51687;52.160;5.298;2023-01-10T04:36:50;24.70;;;5.38;;
43994;SDS011;51687;52.160;5.298;2023-01-10T04:39:17;28.17;;;4.80;;
43994;SDS011;51687;52.160;5.298;2023-01-10T04:41:43;29.65;;;4.97;;
43994;SDS011;51687;52.160;5.298;2023-01-10T04:44:10;25.80;;;5.10;;
43994;SDS011;51687;52.160;5.298;2023-01-10T04:46:37;24.35;;;4.95;;
43994;SDS011;51687;52.160;5.298;2023-01-10T04:49:04;24.77;;;5.07;;
43994;SDS011;51687;52.160;5.298;2023-01-10T04:51:31;30.95;;;5.13;;
43994;SDS011;51687;52.160;5.298;2023-01-10T04:53:58;19.60;;;4.93;;
43994;SDS011;51687;52.160;5.298;2023-01-10T04:56:24;28.50;;;5.60;;
43994;SDS011;51687;52.160;5.298;2023-01-10T04:58:51;24.15;;;4.32;;
43994;SDS011;51687;52.160;5.298;2023-01-10T05:01:20;23.17;;;4.63;;
43994;SDS011;51687;52.160;5.298;2023-01-10T05:03:49;23.85;;;4.03;;
43994;SDS011;51687;52.160;5.298;2023-01-10T05:06:17;28.75;;;5.10;;
43994;SDS011;51687;52.160;5.298;2023-01-10T05:08:44;32.90;;;5.15;;
43994;SDS011;51687;52.160;5.298;2023-01-10T05:11:11;21.55;;;4.70;;
43994;SDS011;51687;52.160;5.298;2023-01-10T05:13:38;28.80;;;5.85;;
43994;SDS011;51687;52.160;5.298;2023-01-10T05:16:05;31.70;;;5.10;;
43994;SDS011;51687;52.160;5.298;2023-01-10T05:18:32;27.60;;;4.68;;
43994;SDS011;51687;52.160;5.298;2023-01-10T05:21:00;24.65;;;5.10;;
43994;SDS011;51687;52.160;5.298;2023-01-10T05:23:27;25.48;;;4.25;;
43994;SDS011;51687;52.160;5.298;2023-01-10T05:25:55;29.58;;;5.38;;
43994;SDS011;51687;52.160;5.298;2023-01-10T05:28:22;25.67;;;4.63;;
43994;SDS011;51687;52.160;5.298;2023-01-10T05:30:49;24.48;;;4.60;;
43994;SDS011;51687;52.160;5.298;2023-01-10T05:33:16;35.20;;;5.43;;
43994;SDS011;51687;52.160;5.298;2023-01-10T05:35:42;21.10;;;4.88;;
43994;SDS011;51687;52.160;5.298;2023-01-10T05:38:09;23.25;;;4.75;;
43994;SDS011;51687;52.160;5.298;2023-01-10T05:40:36;24.52;;;4.07;;
43994;SDS011;51687;52.160;5.298;2023-01-10T05:43:02;28.88;;;4.50;;
43994;SDS011;51687;52.160;5.298;2023-01-10T05:45:29;25.67;;;5.30;;
43994;SDS011;51687;52.160;5.298;2023-01-10T05:47:56;23.70;;;4.80;;
43994;SDS011;51687;52.160;5.298;2023-01-10T05:50:23;27.98;;;5.18;;
43994;SDS011;51687;52.160;5.298;2023-01-10T05:52:49;21.85;;;4.75;;
43994;SDS011;51687;52.160;5.298;2023-01-10T05:55:16;25.10;;;4.53;;
43994;SDS011;51687;52.160;5.298;2023-01-10T05:57:43;26.05;;;4.28;;
43994;SDS011;51687;52.160;5.298;2023-01-10T06:00:11;30.00;;;4.38;;
43994;SDS011;51687;52.160;5.298;2023-01-10T06:02:38;20.55;;;4.20;;
43994;SDS011;51687;52.160;5.298;2023-01-10T06:05:05;28.42;;;5.00;;
43994;SDS011;51687;52.160;5.298;2023-01-10T06:07:32;22.05;;;4.30;;
43994;SDS011;51687;52.160;5.298;2023-01-10T06:09:58;25.33;;;4.40;;
43994;SDS011;51687;52.160;5.298;2023-01-10T06:12:25;17.70;;;5.25;;
43994;SDS011;51687;52.160;5.298;2023-01-10T06:14:52;32.85;;;4.88;;
43994;SDS011;51687;52.160;5.298;2023-01-10T06:17:18;19.27;;;4.47;;
43994;SDS011;51687;52.160;5.298;2023-01-10T06:19:45;19.20;;;4.38;;
43994;SDS011;51687;52.160;5.298;2023-01-10T06:22:13;24.05;;;4.28;;
43994;SDS011;51687;52.160;5.298;2023-01-10T06:24:40;30.58;;;5.65;;
43994;SDS011;51687;52.160;5.298;2023-01-10T06:27:07;16.17;;;4.15;;
43994;SDS011;51687;52.160;5.298;2023-01-10T06:29:34;18.50;;;4.88;;
43994;SDS011;51687;52.160;5.298;2023-01-10T06:32:01;20.50;;;5.10;;
43994;SDS011;51687;52.160;5.298;2023-01-10T06:34:28;23.27;;;5.13;;
43994;SDS011;51687;52.160;5.298;2023-01-10T06:36:55;31.95;;;5.35;;
43994;SDS011;51687;52.160;5.298;2023-01-10T06:39:22;25.02;;;5.25;;
43994;SDS011;51687;52.160;5.298;2023-01-10T06:41:48;21.25;;;4.50;;
43994;SDS011;51687;52.160;5.298;2023-01-10T06:44:16;28.05;;;4.90;;
43994;SDS011;51687;52.160;5.298;2023-01-10T06:46:43;16.50;;;4.22;;
43994;SDS011;51687;52.160;5.298;2023-01-10T06:49:10;24.02;;;5.45;;
43994;SDS011;51687;52.160;5.298;2023-01-10T06:51:36;20.95;;;4.75;;
43994;SDS011;51687;52.160;5.298;2023-01-10T06:54:03;20.67;;;4.55;;
43994;SDS011;51687;52.160;5.298;2023-01-10T06:56:30;22.23;;;4.15;;
43994;SDS011;51687;52.160;5.298;2023-01-10T06:58:56;23.05;;;4.88;;
43994;SDS011;51687;52.160;5.298;2023-01-10T07:01:23;25.92;;;4.97;;
43994;SDS011;51687;52.160;5.298;2023-01-10T07:03:50;24.05;;;4.43;;
43994;SDS011;51687;52.160;5.298;2023-01-10T07:06:17;27.08;;;4.72;;
43994;SDS011;51687;52.160;5.298;2023-01-10T07:08:44;36.60;;;5.25;;
43994;SDS011;51687;52.160;5.298;2023-01-10T07:11:13;31.58;;;5.32;;
43994;SDS011;51687;52.160;5.298;2023-01-10T07:16:08;27.13;;;4.90;;
43994;SDS011;51687;52.160;5.298;2023-01-10T07:18:37;32.05;;;5.72;;
43994;SDS011;51687;52.160;5.298;2023-01-10T07:21:05;24.38;;;5.30;;
43994;SDS011;51687;52.160;5.298;2023-01-10T07:23:32;24.50;;;5.55;;
43994;SDS011;51687;52.160;5.298;2023-01-10T07:26:03;18.80;;;4.38;;
43994;SDS011;51687;52.160;5.298;2023-01-10T07:28:31;26.25;;;5.85;;
43994;SDS011;51687;52.160;5.298;2023-01-10T07:31:03;33.47;;;6.05;;
43994;SDS011;51687;52.160;5.298;2023-01-10T07:33:31;35.53;;;5.40;;
43994;SDS011;51687;52.160;5.298;2023-01-10T07:35:58;26.08;;;5.13;;
43994;SDS011;51687;52.160;5.298;2023-01-10T07:38:26;32.95;;;5.68;;
43994;SDS011;51687;52.160;5.298;2023-01-10T07:40:53;35.00;;;5.82;;
43994;SDS011;51687;52.160;5.298;2023-01-10T07:43:20;37.85;;;6.97;;
43994;SDS011;51687;52.160;5.298;2023-01-10T07:45:47;25.50;;;5.28;;
43994;SDS011;51687;52.160;5.298;2023-01-10T07:48:14;31.20;;;5.25;;
43994;SDS011;51687;52.160;5.298;2023-01-10T07:50:40;25.63;;;5.65;;
43994;SDS011;51687;52.160;5.298;2023-01-10T07:53:08;29.23;;;6.07;;
43994;SDS011;51687;52.160;5.298;2023-01-10T07:55:35;31.48;;;6.20;;
43994;SDS011;51687;52.160;5.298;2023-01-10T07:58:05;24.73;;;5.38;;
43994;SDS011;51687;52.160;5.298;2023-01-10T08:00:38;45.78;;;6.55;;
43994;SDS011;51687;52.160;5.298;2023-01-10T08:03:05;26.08;;;6.05;;
43994;SDS011;51687;52.160;5.298;2023-01-10T08:05:33;23.40;;;5.88;;
43994;SDS011;51687;52.160;5.298;2023-01-10T08:08:04;39.77;;;6.93;;
43994;SDS011;51687;52.160;5.298;2023-01-10T08:10:34;28.95;;;6.65;;
43994;SDS011;51687;52.160;5.298;2023-01-10T08:13:02;22.25;;;5.97;;
43994;SDS011;51687;52.160;5.298;2023-01-10T08:15:43;27.00;;;5.93;;
43994;SDS011;51687;52.160;5.298;2023-01-10T08:20:39;30.20;;;6.05;;
43994;SDS011;51687;52.160;5.298;2023-01-10T08:23:06;23.92;;;6.68;;
43994;SDS011;51687;52.160;5.298;2023-01-10T08:25:33;33.60;;;8.00;;
43994;SDS011;51687;52.160;5.298;2023-01-10T08:28:00;28.98;;;7.00;;
43994;SDS011;51687;52.160;5.298;2023-01-10T08:30:26;29.48;;;6.65;;
43994;SDS011;51687;52.160;5.298;2023-01-10T08:32:53;42.47;;;7.70;;
43994;SDS011;51687;52.160;5.298;2023-01-10T08:35:20;36.42;;;7.45;;
43994;SDS011;51687;52.160;5.298;2023-01-10T08:37:47;29.25;;;7.18;;
43994;SDS011;51687;52.160;5.298;2023-01-10T08:40:13;31.65;;;7.55;;
43994;SDS011;51687;52.160;5.298;2023-01-10T08:42:40;33.08;;;6.70;;
43994;SDS011;51687;52.160;5.298;2023-01-10T08:45:07;29.67;;;7.18;;
43994;SDS011;51687;52.160;5.298;2023-01-10T08:47:35;24.07;;;7.27;;
43994;SDS011;51687;52.160;5.298;2023-01-10T08:50:02;35.75;;;7.65;;
43994;SDS011;51687;52.160;5.298;2023-01-10T08:52:30;28.05;;;6.72;;
43994;SDS011;51687;52.160;5.298;2023-01-10T08:54:57;23.35;;;6.75;;
43994;SDS011;51687;52.160;5.298;2023-01-10T08:57:23;42.08;;;8.35;;
43994;SDS011;51687;52.160;5.298;2023-01-10T08:59:50;25.58;;;7.90;;
43994;SDS011;51687;52.160;5.298;2023-01-10T09:02:18;28.02;;;7.50;;
43994;SDS011;51687;52.160;5.298;2023-01-10T09:04:45;25.70;;;8.20;;
43994;SDS011;51687;52.160;5.298;2023-01-10T09:07:13;28.90;;;7.18;;
43994;SDS011;51687;52.160;5.298;2023-01-10T09:09:39;28.40;;;6.65;;
43994;SDS011;51687;52.160;5.298;2023-01-10T09:12:06;32.08;;;7.20;;
43994;SDS011;51687;52.160;5.298;2023-01-10T09:14:53;36.75;;;7.80;;
43994;SDS011;51687;52.160;5.298;2023-01-10T09:17:19;31.83;;;6.93;;
43994;SDS011;51687;52.160;5.298;2023-01-10T09:19:46;30.52;;;7.10;;
43994;SDS011;51687;52.160;5.298;2023-01-10T09:22:13;24.23;;;6.25;;
43994;SDS011;51687;52.160;5.298;2023-01-10T09:24:40;40.08;;;7.45;;
43994;SDS011;51687;52.160;5.298;2023-01-10T09:27:10;27.42;;;7.18;;
43994;SDS011;51687;52.160;5.298;2023-01-10T09:29:36;26.53;;;7.70;;
43994;SDS011;51687;52.160;5.298;2023-01-10T09:32:03;36.80;;;6.65;;
43994;SDS011;51687;52.160;5.298;2023-01-10T09:34:30;33.17;;;7.18;;
43994;SDS011;51687;52.160;5.298;2023-01-10T09:36:57;32.78;;;6.97;;
43994;SDS011;51687;52.160;5.298;2023-01-10T09:39:24;27.40;;;6.40;;
43994;SDS011;51687;52.160;5.298;2023-01-10T09:44:24;34.20;;;7.03;;
43994;SDS011;51687;52.160;5.298;2023-01-10T09:50:03;27.60;;;7.97;;
43994;SDS011;51687;52.160;5.298;2023-01-10T09:52:36;34.95;;;6.65;;
43994;SDS011;51687;52.160;5.298;2023-01-10T09:57:48;26.25;;;7.15;;
43994;SDS011;51687;52.160;5.298;2023-01-10T10:00:18;29.38;;;7.30;;
43994;SDS011;51687;52.160;5.298;2023-01-10T10:02:49;45.05;;;7.50;;
43994;SDS011;51687;52.160;5.298;2023-01-10T10:05:19;30.33;;;6.05;;
43994;SDS011;51687;52.160;5.298;2023-01-10T10:07:52;29.25;;;6.97;;
43994;SDS011;51687;52.160;5.298;2023-01-10T10:10:33;30.63;;;6.78;;
43994;SDS011;51687;52.160;5.298;2023-01-10T10:13:10;26.90;;;6.15;;
43994;SDS011;51687;52.160;5.298;2023-01-10T10:18:50;22.63;;;5.63;;
43994;SDS011;51687;52.160;5.298;2023-01-10T10:24:29;17.80;;;5.47;;
43994;SDS011;51687;52.160;5.298;2023-01-10T10:33:05;27.30;;;6.10;;
43994;SDS011;51687;52.160;5.298;2023-01-10T10:35:52;21.67;;;5.22;;
43994;SDS011;51687;52.160;5.298;2023-01-10T10:38:31;26.23;;;5.88;;
43994;SDS011;51687;52.160;5.298;2023-01-10T10:41:01;25.47;;;5.73;;
43994;SDS011;51687;52.160;5.298;2023-01-10T10:43:29;32.45;;;6.10;;
43994;SDS011;51687;52.160;5.298;2023-01-10T10:46:04;28.42;;;5.45;;
43994;SDS011;51687;52.160;5.298;2023-01-10T10:53:48;26.00;;;5.33;;
43994;SDS011;51687;52.160;5.298;2023-01-10T10:56:16;18.92;;;5.85;;
43994;SDS011;51687;52.160;5.298;2023-01-10T10:58:47;30.88;;;6.72;;
43994;SDS011;51687;52.160;5.298;2023-01-10T11:01:16;24.15;;;5.35;;
43994;SDS011;51687;52.160;5.298;2023-01-10T11:03:46;22.77;;;5.25;;
43994;SDS011;51687;52.160;5.298;2023-01-10T11:06:17;17.30;;;5.80;;
43994;SDS011;51687;52.160;5.298;2023-01-10T11:08:46;24.55;;;4.85;;
43994;SDS011;51687;52.160;5.298;2023-01-10T11:11:17;16.10;;;5.03;;
43994;SDS011;51687;52.160;5.298;2023-01-10T11:13:54;33.10;;;5.82;;
43994;SDS011;51687;52.160;5.298;2023-01-10T11:16:29;25.55;;;5.28;;
43994;SDS011;51687;52.160;5.298;2023-01-10T11:19:14;24.02;;;5.57;;
43994;SDS011;51687;52.160;5.298;2023-01-10T11:21:45;31.20;;;5.40;;
43994;SDS011;51687;52.160;5.298;2023-01-10T11:24:24;26.65;;;5.05;;
43994;SDS011;51687;52.160;5.298;2023-01-10T11:27:00;25.88;;;5.07;;
43994;SDS011;51687;52.160;5.298;2023-01-10T11:29:39;15.38;;;4.55;;
43994;SDS011;51687;52.160;5.298;2023-01-10T11:32:15;28.60;;;5.40;;
43994;SDS011;51687;52.160;5.298;2023-01-10T11:34:50;19.33;;;5.05;;
43994;SDS011;51687;52.160;5.298;2023-01-10T11:37:24;17.30;;;4.55;;
43994;SDS011;51687;52.160;5.298;2023-01-10T11:42:45;23.33;;;4.35;;
43994;SDS011;51687;52.160;5.298;2023-01-10T11:50:29;20.92;;;4.95;;
43994;SDS011;51687;52.160;5.298;2023-01-10T11:52:59;27.85;;;6.10;;
43994;SDS011;51687;52.160;5.298;2023-01-10T11:55:30;16.02;;;3.92;;
43994;SDS011;51687;52.160;5.298;2023-01-10T11:58:09;24.83;;;5.15;;
43994;SDS011;51687;52.160;5.298;2023-01-10T12:03:40;24.23;;;5.85;;
43994;SDS011;51687;52.160;5.298;2023-01-10T12:06:06;25.08;;;5.05;;
43994;SDS011;51687;52.160;5.298;2023-01-10T12:08:42;27.27;;;5.55;;
43994;SDS011;51687;52.160;5.298;2023-01-10T12:13:47;18.48;;;4.78;;
43994;SDS011;51687;52.160;5.298;2023-01-10T12:16:16;18.48;;;5.43;;
43994;SDS011;51687;52.160;5.298;2023-01-10T12:18:51;18.25;;;4.13;;
43994;SDS011;51687;52.160;5.298;2023-01-10T12:21:28;21.23;;;5.18;;
43994;SDS011;51687;52.160;5.298;2023-01-10T12:24:23;19.77;;;5.07;;
43994;SDS011;51687;52.160;5.298;2023-01-10T12:26:53;19.08;;;4.80;;
43994;SDS011;51687;52.160;5.298;2023-01-10T12:29:32;20.77;;;5.75;;
43994;SDS011;51687;52.160;5.298;2023-01-10T12:32:02;21.55;;;4.68;;
43994;SDS011;51687;52.160;5.298;2023-01-10T12:34:38;24.50;;;5.05;;
43994;SDS011;51687;52.160;5.298;2023-01-10T12:39:46;15.90;;;5.15;;
43994;SDS011;51687;52.160;5.298;2023-01-10T12:42:21;16.52;;;4.45;;
43994;SDS011;51687;52.160;5.298;2023-01-10T12:45:29;19.67;;;4.38;;
43994;SDS011;51687;52.160;5.298;2023-01-10T12:48:05;22.23;;;5.45;;
43994;SDS011;51687;52.160;5.298;2023-01-10T12:58:33;30.73;;;5.82;;
43994;SDS011;51687;52.160;5.298;2023-01-10T13:01:09;22.48;;;5.57;;
43994;SDS011;51687;52.160;5.298;2023-01-10T13:03:40;17.25;;;4.50;;
43994;SDS011;51687;52.160;5.298;2023-01-10T13:06:19;19.60;;;5.07;;
43994;SDS011;51687;52.160;5.298;2023-01-10T13:08:57;17.60;;;4.72;;
43994;SDS011;51687;52.160;5.298;2023-01-10T13:11:29;10.98;;;4.20;;
43994;SDS011;51687;52.160;5.298;2023-01-10T13:14:02;20.95;;;4.90;;
43994;SDS011;51687;52.160;5.298;2023-01-10T13:16:47;22.60;;;4.80;;
43994;SDS011;51687;52.160;5.298;2023-01-10T13:19:25;20.85;;;4.65;;
43994;SDS011;51687;52.160;5.298;2023-01-10T13:24:55;22.35;;;5.82;;
43994;SDS011;51687;52.160;5.298;2023-01-10T13:27:26;16.13;;;3.63;;
43994;SDS011;51687;52.160;5.298;2023-01-10T13:29:56;24.10;;;4.68;;
43994;SDS011;51687;52.160;5.298;2023-01-10T13:32:31;14.00;;;4.50;;
43994;SDS011;51687;52.160;5.298;2023-01-10T13:35:12;26.63;;;4.22;;
43994;SDS011;51687;52.160;5.298;2023-01-10T13:37:42;21.38;;;5.20;;
43994;SDS011;51687;52.160;5.298;2023-01-10T13:40:20;20.20;;;4.63;;
43994;SDS011;51687;52.160;5.298;2023-01-10T13:51:16;16.05;;;5.57;;
43994;SDS011;51687;52.160;5.298;2023-01-10T13:56:30;18.15;;;3.58;;
43994;SDS011;51687;52.160;5.298;2023-01-10T13:59:09;15.93;;;4.20;;
43994;SDS011;51687;52.160;5.298;2023-01-10T14:02:15;17.33;;;4.03;;
43994;SDS011;51687;52.160;5.298;2023-01-10T14:05:04;25.25;;;4.43;;
43994;SDS011;51687;52.160;5.298;2023-01-10T14:07:43;20.17;;;4.40;;
43994;SDS011;51687;52.160;5.298;2023-01-10T14:13:04;18.50;;;4.50;;
43994;SDS011;51687;52.160;5.298;2023-01-10T14:15:42;27.48;;;5.65;;
43994;SDS011;51687;52.160;5.298;2023-01-10T14:21:01;25.15;;;4.82;;
43994;SDS011;51687;52.160;5.298;2023-01-10T14:23:42;19.38;;;4.70;;
43994;SDS011;51687;52.160;5.298;2023-01-10T14:26:16;18.67;;;5.18;;
43994;SDS011;51687;52.160;5.298;2023-01-10T14:28:44;19.83;;;5.18;;
43994;SDS011;51687;52.160;5.298;2023-01-10T14:31:31;19.30;;;5.25;;
43994;SDS011;51687;52.160;5.298;2023-01-10T14:33:58;22.35;;;5.32;;
43994;SDS011;51687;52.160;5.298;2023-01-10T14:36:29;16.77;;;5.00;;
43994;SDS011;51687;52.160;5.298;2023-01-10T14:39:00;23.33;;;5.60;;
43994;SDS011;51687;52.160;5.298;2023-01-10T14:41:36;17.20;;;4.18;;
43994;SDS011;51687;52.160;5.298;2023-01-10T14:44:05;20.25;;;4.10;;
43994;SDS011;51687;52.160;5.298;2023-01-10T14:46:49;25.70;;;5.65;;
43994;SDS011;51687;52.160;5.298;2023-01-10T14:49:19;16.83;;;4.68;;
43994;SDS011;51687;52.160;5.298;2023-01-10T14:51:49;23.05;;;5.72;;
43994;SDS011;51687;52.160;5.298;2023-01-10T14:54:18;25.97;;;5.43;;
43994;SDS011;51687;52.160;5.298;2023-01-10T14:56:51;20.73;;;5.03;;
43994;SDS011;51687;52.160;5.298;2023-01-10T14:59:29;22.75;;;5.22;;
43994;SDS011;51687;52.160;5.298;2023-01-10T15:02:13;16.00;;;4.60;;
43994;SDS011;51687;52.160;5.298;2023-01-10T15:04:58;20.63;;;5.15;;
43994;SDS011;51687;52.160;5.298;2023-01-10T15:07:35;22.40;;;4.82;;
43994;SDS011;51687;52.160;5.298;2023-01-10T15:10:49;20.80;;;4.60;;
43994;SDS011;51687;52.160;5.298;2023-01-10T15:12:55;16.08;;;4.47;;
43994;SDS011;51687;52.160;5.298;2023-01-10T15:15:31;15.73;;;4.57;;
43994;SDS011;51687;52.160;5.298;2023-01-10T15:18:00;14.55;;;4.68;;
43994;SDS011;51687;52.160;5.298;2023-01-10T15:20:31;23.05;;;4.85;;
43994;SDS011;51687;52.160;5.298;2023-01-10T15:22:59;14.48;;;3.72;;
43994;SDS011;51687;52.160;5.298;2023-01-10T15:25:36;12.45;;;3.88;;
43994;SDS011;51687;52.160;5.298;2023-01-10T15:28:15;12.43;;;4.30;;
43994;SDS011;51687;52.160;5.298;2023-01-10T15:30:44;17.73;;;4.50;;
43994;SDS011;51687;52.160;5.298;2023-01-10T15:33:13;15.20;;;4.38;;
43994;SDS011;51687;52.160;5.298;2023-01-10T15:35:42;16.55;;;4.57;;
43994;SDS011;51687;52.160;5.298;2023-01-10T15:38:15;16.45;;;3.88;;
43994;SDS011;51687;52.160;5.298;2023-01-10T15:40:51;14.35;;;3.95;;
43994;SDS011;51687;52.160;5.298;2023-01-10T15:43:23;11.73;;;4.57;;
43994;SDS011;51687;52.160;5.298;2023-01-10T15:45:52;15.20;;;4.15;;
43994;SDS011;51687;52.160;5.298;2023-01-10T15:51:21;11.38;;;3.38;;
43994;SDS011;51687;52.160;5.298;2023-01-10T15:53:59;13.32;;;3.58;;
43994;SDS011;51687;52.160;5.298;2023-01-10T15:59:04;15.70;;;4.15;;
43994;SDS011;51687;52.160;5.298;2023-01-10T16:01:55;11.05;;;4.00;;
43994;SDS011;51687;52.160;5.298;2023-01-10T16:04:46;13.35;;;3.58;;
43994;SDS011;51687;52.160;5.298;2023-01-10T16:07:26;15.02;;;4.32;;
43994;SDS011;51687;52.160;5.298;2023-01-10T16:12:37;9.05;;;3.20;;
43994;SDS011;51687;52.160;5.298;2023-01-10T16:15:26;9.90;;;2.92;;
43994;SDS011;51687;52.160;5.298;2023-01-10T16:17:54;9.52;;;3.05;;
43994;SDS011;51687;52.160;5.298;2023-01-10T16:20:31;11.32;;;3.97;;
43994;SDS011;51687;52.160;5.298;2023-01-10T16:23:02;7.50;;;3.80;;
43994;SDS011;51687;52.160;5.298;2023-01-10T16:25:37;8.30;;;2.45;;
43994;SDS011;51687;52.160;5.298;2023-01-10T16:28:05;10.27;;;2.97;;
43994;SDS011;51687;52.160;5.298;2023-01-10T16:30:33;8.32;;;2.63;;
43994;SDS011;51687;52.160;5.298;2023-01-10T16:33:10;8.05;;;4.93;;
43994;SDS011;51687;52.160;5.298;2023-01-10T16:35:58;6.47;;;2.67;;
43994;SDS011;51687;52.160;5.298;2023-01-10T16:38:25;8.48;;;3.60;;
43994;SDS011;51687;52.160;5.298;2023-01-10T16:40:58;5.60;;;1.75;;
43994;SDS011;51687;52.160;5.298;2023-01-10T16:43:49;5.97;;;3.08;;
43994;SDS011;51687;52.160;5.298;2023-01-10T16:46:17;7.88;;;2.67;;
43994;SDS011;51687;52.160;5.298;2023-01-10T16:48:43;6.22;;;2.40;;
43994;SDS011;51687;52.160;5.298;2023-01-10T16:51:16;6.80;;;2.13;;
43994;SDS011;51687;52.160;5.298;2023-01-10T16:53:45;6.18;;;2.70;;
43994;SDS011;51687;52.160;5.298;2023-01-10T16:56:13;5.82;;;2.22;;
43994;SDS011;51687;52.160;5.298;2023-01-10T16:58:42;6.82;;;4.15;;